Time;durP1;ratioP1;P1;durP2;ratioP2;P2;SDS_P1;SDS_P2;PMS_P1;PMS_P2;Temp;Humidity;BMP_temperature;BMP_pressure;BME280_temperature;BME280_humidity;BME280_pressure;Samples;Min_cycle;Max_cycle;Signal;HPM_P1;HPM_P2
2021/08/24 00:01:23;;;;;;;9.40;4.85;;;;;;;17.08;78.72;101143.06;20737894;28;20491;-70
2021/08/24 00:11:26;;;;;;;7.32;5.00;;;;;;;16.77;82.25;101129.03;20738340;28;20050;-69
2021/08/24 00:21:27;;;;;;;10.82;6.40;;;;;;;16.59;84.30;101135.72;20737289;28;20061;-69
2021/08/24 00:31:30;;;;;;;10.13;6.50;;;;;;;16.46;85.01;101139.59;20736062;28;20050;-69
2021/08/24 00:41:36;;;;;;;14.65;6.40;;;;;;;16.45;84.48;101144.03;20736774;28;20068;-70
2021/08/24 00:51:41;;;;;;;8.27;6.13;;;;;;;16.29;85.26;101137.41;20737404;28;20045;-70
2021/08/24 01:01:43;;;;;;;7.40;5.53;;;;;;;16.35;83.59;101134.63;20734757;28;20053;-69
2021/08/24 01:12:02;;;;;;;7.78;5.15;;;;;;;16.47;82.15;101138.69;20742884;28;20444;-70
2021/08/24 01:22:23;;;;;;;8.02;5.07;;;;;;;16.34;81.88;101143.47;20749922;28;20050;-70
2021/08/24 01:32:57;;;;;;;7.82;5.30;;;;;;;16.24;82.87;101141.97;20747494;28;20054;-69
2021/08/24 01:43:03;;;;;;;7.38;5.35;;;;;;;16.06;83.51;101141.56;20744440;28;20467;-70
2021/08/24 01:53:20;;;;;;;8.82;5.53;;;;;;;15.96;84.10;101144.50;20746810;28;20054;-70
2021/08/24 02:03:31;;;;;;;10.82;6.00;;;;;;;15.73;85.42;101143.31;20746366;28;20054;-70
2021/08/24 02:13:43;;;;;;;10.75;6.70;;;;;;;15.45;86.42;101153.63;20746595;28;20424;-69
2021/08/24 02:23:48;;;;;;;12.57;7.72;;;;;;;15.23;87.71;101152.38;20744837;28;20046;-69
2021/08/24 02:33:59;;;;;;;11.18;7.80;;;;;;;15.01;88.17;101152.00;20745017;28;20046;-69
2021/08/24 02:44:22;;;;;;;13.15;7.68;;;;;;;14.83;88.68;101145.38;20744954;28;20136;-70
2021/08/24 02:54:45;;;;;;;14.23;8.02;;;;;;;14.83;88.58;101145.38;20741818;28;20064;-70
2021/08/24 03:04:47;;;;;;;14.07;9.05;;;;;;;14.58;89.52;101145.00;20741457;28;20068;-70
2021/08/24 03:14:56;;;;;;;17.42;10.15;;;;;;;14.35;89.98;101150.69;20741716;28;20045;-69
2021/08/24 03:24:59;;;;;;;17.65;11.82;;;;;;;14.15;90.54;101152.84;20741322;28;20089;-70
2021/08/24 03:35:01;;;;;;;24.63;16.95;;;;;;;13.99;91.24;101144.34;20739608;28;20400;-70
2021/08/24 03:45:05;;;;;;;27.60;17.33;;;;;;;13.85;91.56;101165.66;20740424;28;20488;-70
2021/08/24 03:55:07;;;;;;;25.10;16.70;;;;;;;13.73;90.84;101179.00;20739195;28;20049;-70
2021/08/24 04:05:10;;;;;;;27.42;16.83;;;;;;;13.52;91.32;101183.72;20738474;28;20116;-70
2021/08/24 04:15:12;;;;;;;23.50;15.27;;;;;;;13.30;91.60;101190.19;20737671;28;20050;-70
2021/08/24 04:25:16;;;;;;;26.95;15.85;;;;;;;13.20;91.25;101193.81;20736012;28;20100;-69
2021/08/24 04:35:19;;;;;;;23.00;14.50;;;;;;;13.08;91.23;101208.00;20736771;28;20046;-69
2021/08/24 04:45:21;;;;;;;23.88;13.68;;;;;;;13.03;90.43;101208.06;20743444;28;20412;-69
2021/08/24 04:55:23;;;;;;;20.27;11.45;;;;;;;12.97;90.18;101216.00;20753165;28;20056;-69
2021/08/24 05:05:25;;;;;;;18.85;11.00;;;;;;;12.93;90.12;101224.81;20751864;28;20042;-70
2021/08/24 05:15:27;;;;;;;15.00;9.40;;;;;;;12.88;90.02;101224.00;20751271;28;20492;-70
2021/08/24 05:25:30;;;;;;;17.13;9.05;;;;;;;12.80;89.68;101231.13;20750361;28;20050;-69
2021/08/24 05:35:31;;;;;;;15.25;8.02;;;;;;;12.84;88.78;101224.94;20749425;28;20492;-69
2021/08/24 05:45:33;;;;;;;13.07;6.80;;;;;;;12.98;88.09;101227.38;20749326;28;20053;-69
2021/08/24 05:55:38;;;;;;;11.63;6.45;;;;;;;13.19;86.96;101234.16;20746896;28;20392;-69
2021/08/24 06:05:41;;;;;;;11.95;6.35;;;;;;;13.32;87.13;101241.03;20745942;28;20046;-69
2021/08/24 06:15:43;;;;;;;13.43;7.95;;;;;;;13.43;86.89;101239.09;20745507;28;20046;-69
2021/08/24 06:25:45;;;;;;;11.13;7.78;;;;;;;13.72;85.38;101253.59;20745557;28;20062;-69
2021/08/24 06:35:47;;;;;;;17.67;11.15;;;;;;;13.69;86.44;101249.25;20745131;28;20574;-70
2021/08/24 06:45:48;;;;;;;17.95;10.73;;;;;;;14.21;85.44;101260.72;20745736;28;20046;-70
2021/08/24 06:55:50;;;;;;;21.83;12.45;;;;;;;14.05;85.80;101254.84;20745442;28;20588;-70
2021/08/24 07:05:52;;;;;;;15.43;11.40;;;;;;;14.02;85.51;101258.38;20723357;28;20053;-69
2021/08/24 07:15:55;;;;;;;12.70;8.77;;;;;;;14.40;83.70;101264.78;20744246;28;20501;-69
2021/08/24 07:25:57;;;;;;;14.68;8.65;;;;;;;14.80;82.46;101258.78;20683073;28;20089;-70
2021/08/24 07:35:59;;;;;;;11.90;7.80;;;;;;;15.30;80.14;101249.84;20661378;28;20501;-70
2021/08/24 07:46:01;;;;;;;11.30;6.10;;;;;;;15.64;78.95;101243.84;20661255;28;20046;-70
2021/08/24 07:56:06;;;;;;;10.95;5.85;;;;;;;16.06;74.32;101239.31;20659879;28;20050;-68
2021/08/24 08:06:07;;;;;;;;;;;;;;;16.27;73.49;101239.66;20659327;28;20038;-68
2021/08/24 08:16:09;;;;;;;6.78;4.35;;;;;;;16.75;70.66;101244.56;20658419;28;19988;-68
2021/08/24 08:26:11;;;;;;;8.52;4.03;;;;;;;16.66;68.55;101237.72;20657562;28;20046;-68
2021/08/24 08:36:13;;;;;;;6.43;3.65;;;;;;;17.02;68.43;101224.41;20657730;28;20105;-69
2021/08/24 08:46:25;;;;;;;10.55;3.55;;;;;;;17.21;63.73;101220.31;20658587;28;20050;-69
2021/08/24 08:57:07;;;;;;;7.22;3.35;;;;;;;17.32;65.64;101212.91;20658031;28;20043;-68
2021/08/24 09:07:22;;;;;;;6.53;3.47;;;;;;;17.64;67.04;101219.00;20656238;28;20073;-68
2021/08/24 09:17:31;;;;;;;8.23;3.93;;;;;;;17.97;62.89;101208.25;20718649;28;20566;-68
2021/08/24 09:27:53;;;;;;;7.72;3.45;;;;;;;17.79;63.30;101207.06;20735947;28;20570;-69
2021/08/24 09:38:00;;;;;;;6.45;3.30;;;;;;;18.19;63.38;101202.13;20750921;28;20046;-69
2021/08/24 09:48:07;;;;;;;6.93;3.13;;;;;;;18.38;62.68;101191.75;20750266;28;20054;-69
2021/08/24 09:58:27;;;;;;;6.50;3.50;;;;;;;18.52;61.36;101193.94;20748731;28;20054;-70
2021/08/24 10:30:34;;;;;;;6.82;2.72;;;;;;;19.39;58.29;101197.75;20498149;28;20039;-78
2021/08/24 10:40:42;;;;;;;6.10;3.40;;;;;;;18.93;60.49;101194.25;20495627;28;20489;-78
2021/08/24 10:51:09;;;;;;;7.35;3.47;;;;;;;18.86;60.44;101196.22;20461226;28;20051;-78
2021/08/24 11:01:21;;;;;;;8.50;3.17;;;;;;;18.90;61.04;101195.19;20426022;29;20498;-80
2021/08/24 11:11:56;;;;;;;6.85;3.03;;;;;;;19.33;61.45;101187.38;20430891;29;20073;-79
2021/08/24 11:22:08;;;;;;;6.67;3.00;;;;;;;19.09;61.18;101194.50;20426147;29;20048;-79
2021/08/24 11:32:18;;;;;;;10.50;2.75;;;;;;;19.00;62.42;101198.38;20425948;29;20056;-79
2021/08/24 11:42:44;;;;;;;5.80;2.60;;;;;;;19.07;61.55;101197.22;20422607;29;20059;-80
2021/08/24 11:52:54;;;;;;;4.82;2.70;;;;;;;19.41;61.80;101203.88;20429134;29;20099;-79
2021/08/24 12:03:00;;;;;;;5.28;2.75;;;;;;;19.35;61.02;101209.41;20435587;29;20070;-80
2021/08/24 12:13:09;;;;;;;7.60;3.40;;;;;;;19.50;60.79;101216.81;20430467;29;20486;-79
2021/08/24 12:23:30;;;;;;;6.28;2.95;;;;;;;19.37;61.34;101207.59;20413632;29;20060;-79
2021/08/24 12:33:36;;;;;;;8.25;3.28;;;;;;;20.35;59.47;101204.41;20428688;29;20449;-78
2021/08/24 12:43:48;;;;;;;6.00;3.38;;;;;;;20.97;57.91;101205.22;20427959;29;20066;-80
2021/08/24 12:53:52;;;;;;;5.93;3.30;;;;;;;20.65;57.38;101207.56;20404852;29;20051;-77
2021/08/24 13:04:04;;;;;;;7.90;3.20;;;;;;;20.84;58.56;101210.25;20435028;29;20473;-76
2021/08/24 13:14:28;;;;;;;6.35;3.10;;;;;;;20.92;59.23;101217.88;20451602;29;20107;-78
2021/08/24 13:24:35;;;;;;;5.63;3.03;;;;;;;20.54;58.65;101225.78;20434750;29;20073;-76
2021/08/24 13:34:50;;;;;;;8.45;3.60;;;;;;;21.01;57.13;101220.97;20432831;29;20055;-77
2021/08/24 13:44:52;;;;;;;6.15;3.30;;;;;;;20.98;57.34;101223.81;20432095;29;20047;-78
2021/08/24 13:54:55;;;;;;;5.93;3.00;;;;;;;20.59;59.15;101225.56;20432549;29;20525;-76
2021/08/24 14:04:57;;;;;;;7.38;3.42;;;;;;;20.65;56.56;101226.19;20430305;29;20052;-77
2021/08/24 14:15:13;;;;;;;7.57;4.00;;;;;;;20.55;57.15;101224.84;20413308;29;20110;-78
2021/08/24 14:25:30;;;;;;;9.35;5.25;;;;;;;20.25;59.14;101217.22;20430090;29;20102;-78
2021/08/24 14:35:57;;;;;;;6.45;3.72;;;;;;;20.30;59.75;101218.84;20429540;29;20454;-78
2021/08/24 14:45:59;;;;;;;9.27;4.22;;;;;;;20.33;57.98;101216.91;20412595;29;20102;-78
2021/08/24 14:56:23;;;;;;;7.68;4.22;;;;;;;20.20;58.46;101211.25;20428398;29;20512;-78
2021/08/24 15:06:38;;;;;;;7.38;3.97;;;;;;;20.11;59.06;101214.28;20417625;29;20044;-79
2021/08/24 15:16:40;;;;;;;6.65;3.50;;;;;;;19.79;61.14;101206.81;20426664;29;20095;-78
2021/08/24 15:26:50;;;;;;;5.95;3.35;;;;;;;19.67;61.05;101205.50;20424910;29;20056;-78
2021/08/24 15:36:53;;;;;;;6.65;3.70;;;;;;;19.49;62.11;101199.13;20423474;29;20051;-79
2021/08/24 15:46:56;;;;;;;7.53;3.95;;;;;;;19.22;62.76;101190.47;20406792;29;20454;-78
2021/08/24 15:56:58;;;;;;;7.37;3.90;;;;;;;19.22;63.72;101169.22;20423253;29;20044;-78
2021/08/24 16:07:04;;;;;;;6.45;3.72;;;;;;;19.21;63.29;101163.06;20408974;29;20048;-79
2021/08/24 16:17:05;;;;;;;9.52;4.88;;;;;;;19.00;64.46;101157.69;20405103;29;20421;-78
2021/08/24 16:27:07;;;;;;;8.73;5.03;;;;;;;19.31;64.85;101158.25;20422210;29;20107;-77
2021/08/24 16:37:10;;;;;;;8.18;4.63;;;;;;;19.41;63.79;101148.97;20442082;28;20564;-77
2021/08/24 16:47:12;;;;;;;7.88;4.95;;;;;;;19.50;62.30;101131.81;20504070;23;20058;-75
2021/08/24 16:57:14;;;;;;;12.02;5.78;;;;;;;19.47;62.40;101137.22;20551668;28;64307;-75
2021/08/24 17:07:15;;;;;;;10.20;5.20;;;;;;;19.53;62.56;101129.00;20575309;28;20078;-73
2021/08/24 17:17:17;;;;;;;8.77;4.78;;;;;;;19.27;63.96;101147.81;20578406;28;20133;-74
2021/08/24 17:27:23;;;;;;;9.82;5.30;;;;;;;19.26;63.58;101143.41;20578043;28;20039;-76
2021/08/24 17:37:25;;;;;;;9.25;5.47;;;;;;;19.00;65.15;101134.69;20578093;28;20043;-75
2021/08/24 17:47:29;;;;;;;9.80;5.60;;;;;;;18.82;66.05;101133.59;20596535;28;20055;-76
2021/08/24 17:57:30;;;;;;;9.20;5.70;;;;;;;18.48;67.25;101138.41;20570518;28;20411;-76
2021/08/24 18:07:32;;;;;;;7.93;5.32;;;;;;;18.33;68.77;101134.53;20571034;28;20077;-76
2021/08/24 18:17:34;;;;;;;10.23;5.78;;;;;;;17.88;70.82;101133.44;20586868;28;20050;-76
2021/08/24 18:27:36;;;;;;;10.50;6.10;;;;;;;17.63;71.40;101136.03;20586342;28;20046;-76
2021/08/24 18:37:37;;;;;;;9.35;6.45;;;;;;;17.51;71.29;101128.47;20585271;28;20043;-76
2021/08/24 18:47:39;;;;;;;9.15;6.45;;;;;;;17.22;72.21;101141.78;20570392;28;20047;-74
2021/08/24 18:57:41;;;;;;;10.32;6.38;;;;;;;17.09;72.59;101152.72;20586422;28;20094;-76
2021/08/24 19:07:43;;;;;;;11.25;6.70;;;;;;;16.89;72.69;101155.13;20564947;28;20408;-76
2021/08/24 19:17:44;;;;;;;10.38;6.32;;;;;;;16.72;73.76;101167.97;20583061;28;20485;-76
2021/08/24 19:27:46;;;;;;;11.68;7.03;;;;;;;16.50;74.97;101168.56;20582787;28;20051;-77
2021/08/24 19:37:49;;;;;;;14.93;7.57;;;;;;;16.27;76.01;101160.38;20581319;28;20485;-77
2021/08/24 19:47:51;;;;;;;11.45;7.65;;;;;;;15.99;77.12;101166.38;20562684;28;20488;-77
2021/08/24 19:57:52;;;;;;;10.48;6.75;;;;;;;16.03;76.60;101168.06;20562797;28;20125;-75
2021/08/24 20:07:54;;;;;;;11.98;7.38;;;;;;;16.10;75.92;101168.78;20578806;28;20047;-75
2021/08/24 20:17:56;;;;;;;11.88;7.03;;;;;;;16.28;73.07;101162.13;20577694;28;20662;-75
2021/08/24 20:27:57;;;;;;;9.27;6.18;;;;;;;16.50;71.75;101157.13;20581155;28;20548;-75
2021/08/24 20:37:59;;;;;;;10.93;5.78;;;;;;;16.56;70.81;101155.16;20580223;28;20050;-75
2021/08/24 20:48:01;;;;;;;8.60;5.57;;;;;;;16.54;70.41;101151.69;20562983;28;20105;-75
2021/08/24 20:58:03;;;;;;;10.48;5.95;;;;;;;16.49;70.66;101135.09;20580533;28;20051;-77
2021/08/24 21:08:06;;;;;;;10.40;5.47;;;;;;;16.46;70.48;101150.19;20579389;28;20046;-72
2021/08/24 21:18:09;;;;;;;9.32;5.97;;;;;;;16.27;70.75;101144.53;20559701;28;20077;-72
2021/08/24 21:28:11;;;;;;;10.93;6.97;;;;;;;16.15;71.47;101154.53;20561203;28;20055;-72
2021/08/24 21:38:17;;;;;;;9.65;6.25;;;;;;;16.18;71.10;101150.94;20584089;28;20161;-72
2021/08/24 21:48:19;;;;;;;9.73;6.43;;;;;;;16.13;71.09;101151.03;20573792;28;20125;-72
2021/08/24 21:58:22;;;;;;;9.57;6.68;;;;;;;16.16;71.48;101143.06;20589188;28;20054;-72
2021/08/24 22:08:29;;;;;;;11.90;6.50;;;;;;;16.14;71.49;101139.59;20588830;28;20093;-72
2021/08/24 22:18:30;;;;;;;10.55;7.03;;;;;;;16.04;71.45;101139.84;20590526;28;20055;-72
2021/08/24 22:28:35;;;;;;;13.07;7.95;;;;;;;15.88;71.75;101142.03;20609679;28;20051;-73
2021/08/24 22:38:39;;;;;;;10.53;7.33;;;;;;;15.49;73.56;101144.75;20595034;28;20102;-72
2021/08/24 22:48:45;;;;;;;14.18;8.32;;;;;;;15.37;73.50;101139.75;20584897;28;20388;-73
2021/08/24 22:58:47;;;;;;;12.70;8.60;;;;;;;15.23;73.54;101131.28;20584281;28;20054;-72
2021/08/24 23:08:49;;;;;;;14.00;8.23;;;;;;;15.16;74.36;101135.84;20580685;28;20070;-72
2021/08/24 23:18:50;;;;;;;14.20;8.65;;;;;;;14.98;74.77;101137.13;20575280;28;20046;-74
2021/08/24 23:28:52;;;;;;;13.98;8.90;;;;;;;14.84;75.26;101133.91;20565089;28;20105;-74
2021/08/24 23:38:54;;;;;;;14.30;9.85;;;;;;;14.73;75.67;101128.00;20581127;28;20042;-73
2021/08/24 23:48:57;;;;;;;15.02;9.57;;;;;;;14.58;76.22;101132.69;20580806;28;20410;-74
2021/08/24 23:59:01;;;;;;;16.08;10.40;;;;;;;14.44;77.19;101129.44;20580560;28;20047;-74
